KINT/INT METAR and TAF weather

Enter ICAO airport designator
Station Type Date Time Source
KINT METAR 2019/08/18 18:54 UTC NOAA

KINT 181854Z 19006KT 10SM CLR 33/19 A3004 RMK AO2 SLP159 T03330194


Station Type Date Time Source
KINT Decoded METAR 2019/08/18 18:54 UTC NOAA

Station name not available
Aug 18, 2019 - 02:54 PM EDT / 2019.08.18 1854 UTC
Wind: from the S (190 degrees) at 7 MPH (6 KT):0
Visibility: 10 mile(s):0
Sky conditions: clear
Temperature: 91.9 F (33.3 C)
Heat index: 95.4 F (35.2 C):1
Dew Point: 66.9 F (19.4 C)
Relative Humidity: 44%
Pressure (altimeter): 30.04 in. Hg (1017 hPa)
ob: KINT 181854Z 19006KT 10SM CLR 33/19 A3004 RMK AO2 SLP159 T03330194
cycle: 19

Station Type Date Time Source
KINT TAF 2019/08/18 18:27 UTC NOAA

TAF KINT 181724Z 1818/1918 VRB03KT P6SM FEW200
FM191100 VRB02KT 6SM BR FEW200
FM191300 VRB02KT P6SM FEW200

Example: see airport list